sensor_id;sensor_type;location;lat;lon;timestamp;pressure;altitude;pressure_sealevel;temperature;humidity
17615;BME280;8926;49.720;6.576;2022-08-16T00:02:13;98930.47;;;20.71;73.50
17615;BME280;8926;49.720;6.576;2022-08-16T00:04:38;98934.47;;;20.67;74.07
17615;BME280;8926;49.720;6.576;2022-08-16T00:07:04;98931.81;;;20.67;74.85
17615;BME280;8926;49.720;6.576;2022-08-16T00:09:30;98938.13;;;20.66;74.17
17615;BME280;8926;49.720;6.576;2022-08-16T00:11:56;98943.44;;;20.66;74.19
17615;BME280;8926;49.720;6.576;2022-08-16T00:14:26;98944.78;;;20.62;74.57
17615;BME280;8926;49.720;6.576;2022-08-16T00:16:52;98947.75;;;20.59;73.89
17615;BME280;8926;49.720;6.576;2022-08-16T00:19:21;98951.41;;;20.58;74.90
17615;BME280;8926;49.720;6.576;2022-08-16T00:21:47;98955.06;;;20.57;74.83
17615;BME280;8926;49.720;6.576;2022-08-16T00:24:12;98952.75;;;20.54;75.35
17615;BME280;8926;49.720;6.576;2022-08-16T00:26:39;98948.44;;;20.53;74.95
17615;BME280;8926;49.720;6.576;2022-08-16T00:29:05;98945.97;;;20.51;75.14
17615;BME280;8926;49.720;6.576;2022-08-16T00:31:31;98947.16;;;20.49;75.20
17615;BME280;8926;49.720;6.576;2022-08-16T00:33:58;98947.97;;;20.49;74.64
17615;BME280;8926;49.720;6.576;2022-08-16T00:36:23;98945.78;;;20.53;74.69
17615;BME280;8926;49.720;6.576;2022-08-16T00:38:48;98947.44;;;20.54;75.24
17615;BME280;8926;49.720;6.576;2022-08-16T00:41:14;98944.78;;;20.54;75.01
17615;BME280;8926;49.720;6.576;2022-08-16T00:43:40;98944.31;;;20.50;75.04
17615;BME280;8926;49.720;6.576;2022-08-16T00:46:12;98944.00;;;20.45;75.06
17615;BME280;8926;49.720;6.576;2022-08-16T00:48:40;98943.16;;;20.45;75.29
17615;BME280;8926;49.720;6.576;2022-08-16T00:51:06;98951.13;;;20.45;75.20
17615;BME280;8926;49.720;6.576;2022-08-16T00:53:32;98951.81;;;20.39;75.85
17615;BME280;8926;49.720;6.576;2022-08-16T00:56:02;98958.09;;;20.38;76.09
17615;BME280;8926;49.720;6.576;2022-08-16T00:58:30;98954.09;;;20.33;75.54
17615;BME280;8926;49.720;6.576;2022-08-16T01:00:56;98954.75;;;20.27;75.70
17615;BME280;8926;49.720;6.576;2022-08-16T01:03:25;98951.81;;;20.22;76.56
17615;BME280;8926;49.720;6.576;2022-08-16T01:05:50;98952.13;;;20.19;76.45
17615;BME280;8926;49.720;6.576;2022-08-16T01:08:19;98948.50;;;20.20;76.48
17615;BME280;8926;49.720;6.576;2022-08-16T01:10:45;98944.50;;;20.16;76.27
17615;BME280;8926;49.720;6.576;2022-08-16T01:13:16;98953.47;;;20.15;76.65
17615;BME280;8926;49.720;6.576;2022-08-16T01:15:46;98951.97;;;20.13;76.83
17615;BME280;8926;49.720;6.576;2022-08-16T01:18:16;98948.66;;;20.11;76.16
17615;BME280;8926;49.720;6.576;2022-08-16T01:21:42;98947.50;;;20.13;76.08
17615;BME280;8926;49.720;6.576;2022-08-16T01:24:02;98946.66;;;20.13;76.77
17615;BME280;8926;49.720;6.576;2022-08-16T01:26:32;98945.84;;;20.12;76.13
17615;BME280;8926;49.720;6.576;2022-08-16T01:29:02;98942.19;;;20.05;76.51
17615;BME280;8926;49.720;6.576;2022-08-16T01:31:28;98936.59;;;20.00;76.77
17615;BME280;8926;49.720;6.576;2022-08-16T01:33:54;98942.88;;;19.91;76.20
17615;BME280;8926;49.720;6.576;2022-08-16T01:36:19;98940.56;;;19.88;76.54
17615;BME280;8926;49.720;6.576;2022-08-16T01:38:48;98947.34;;;19.90;76.71
17615;BME280;8926;49.720;6.576;2022-08-16T01:41:16;98946.53;;;19.90;77.02
17615;BME280;8926;49.720;6.576;2022-08-16T01:43:44;98942.38;;;19.87;77.11
17615;BME280;8926;49.720;6.576;2022-08-16T01:46:38;98940.22;;;19.83;76.89
17615;BME280;8926;49.720;6.576;2022-08-16T01:49:11;98948.66;;;19.78;76.86
17615;BME280;8926;49.720;6.576;2022-08-16T01:51:38;98951.47;;;19.77;77.95
17615;BME280;8926;49.720;6.576;2022-08-16T01:54:05;98947.81;;;19.78;78.06
17615;BME280;8926;49.720;6.576;2022-08-16T01:56:31;98948.00;;;19.76;77.90
17615;BME280;8926;49.720;6.576;2022-08-16T01:58:58;98947.53;;;19.73;77.86
17615;BME280;8926;49.720;6.576;2022-08-16T02:01:25;98948.50;;;19.72;78.29
17615;BME280;8926;49.720;6.576;2022-08-16T02:03:50;98946.84;;;19.71;78.07
17615;BME280;8926;49.720;6.576;2022-08-16T02:06:16;98946.84;;;19.71;78.03
17615;BME280;8926;49.720;6.576;2022-08-16T02:08:42;98937.06;;;19.71;77.99
17615;BME280;8926;49.720;6.576;2022-08-16T02:11:07;98938.56;;;19.74;78.20
17615;BME280;8926;49.720;6.576;2022-08-16T02:13:34;98944.50;;;19.76;77.77
17615;BME280;8926;49.720;6.576;2022-08-16T02:16:00;98954.47;;;19.74;78.37
17615;BME280;8926;49.720;6.576;2022-08-16T02:18:25;98943.22;;;19.72;78.23
17615;BME280;8926;49.720;6.576;2022-08-16T02:20:52;98946.34;;;19.67;78.38
17615;BME280;8926;49.720;6.576;2022-08-16T02:23:17;98954.47;;;19.65;78.38
17615;BME280;8926;49.720;6.576;2022-08-16T02:25:43;98957.44;;;19.62;78.38
17615;BME280;8926;49.720;6.576;2022-08-16T02:28:09;98960.72;;;19.56;78.33
17615;BME280;8926;49.720;6.576;2022-08-16T02:30:34;98952.28;;;19.53;78.69
17615;BME280;8926;49.720;6.576;2022-08-16T02:33:01;98957.72;;;19.51;78.80
17615;BME280;8926;49.720;6.576;2022-08-16T02:35:26;98958.06;;;19.48;78.66
17615;BME280;8926;49.720;6.576;2022-08-16T02:37:53;98964.19;;;19.49;79.09
17615;BME280;8926;49.720;6.576;2022-08-16T02:40:21;98959.41;;;19.52;78.91
17615;BME280;8926;49.720;6.576;2022-08-16T02:42:48;98961.25;;;19.60;78.74
17615;BME280;8926;49.720;6.576;2022-08-16T02:45:14;98955.63;;;19.63;77.94
17615;BME280;8926;49.720;6.576;2022-08-16T02:47:40;98960.09;;;19.62;77.88
17615;BME280;8926;49.720;6.576;2022-08-16T02:50:06;98955.78;;;19.61;77.70
17615;BME280;8926;49.720;6.576;2022-08-16T02:52:31;98968.34;;;19.59;77.23
17615;BME280;8926;49.720;6.576;2022-08-16T02:54:57;98974.97;;;19.55;77.42
17615;BME280;8926;49.720;6.576;2022-08-16T02:57:22;98967.97;;;19.46;78.34
17615;BME280;8926;49.720;6.576;2022-08-16T02:59:48;98966.31;;;19.45;78.30
17615;BME280;8926;49.720;6.576;2022-08-16T03:02:15;98965.66;;;19.43;79.50
17615;BME280;8926;49.720;6.576;2022-08-16T03:04:40;98958.69;;;19.42;79.25
17615;BME280;8926;49.720;6.576;2022-08-16T03:07:05;98961.84;;;19.46;79.14
17615;BME280;8926;49.720;6.576;2022-08-16T03:09:32;98963.69;;;19.45;78.74
17615;BME280;8926;49.720;6.576;2022-08-16T03:11:58;98967.63;;;19.41;78.90
17615;BME280;8926;49.720;6.576;2022-08-16T03:14:24;98968.63;;;19.40;78.30
17615;BME280;8926;49.720;6.576;2022-08-16T03:16:49;98973.25;;;19.38;78.47
17615;BME280;8926;49.720;6.576;2022-08-16T03:19:15;98968.28;;;19.35;78.23
17615;BME280;8926;49.720;6.576;2022-08-16T03:21:40;98971.56;;;19.29;78.69
17615;BME280;8926;49.720;6.576;2022-08-16T03:24:06;98963.94;;;19.26;78.71
17615;BME280;8926;49.720;6.576;2022-08-16T03:26:32;98968.91;;;19.29;78.60
17615;BME280;8926;49.720;6.576;2022-08-16T03:28:57;98964.59;;;19.28;78.89
17615;BME280;8926;49.720;6.576;2022-08-16T03:31:23;98960.63;;;19.24;78.18
17615;BME280;8926;49.720;6.576;2022-08-16T03:33:49;98960.97;;;19.21;78.02
17615;BME280;8926;49.720;6.576;2022-08-16T03:36:15;98961.59;;;19.23;78.76
17615;BME280;8926;49.720;6.576;2022-08-16T03:38:40;98959.31;;;19.20;78.75
17615;BME280;8926;49.720;6.576;2022-08-16T03:41:06;98961.59;;;19.15;78.46
17615;BME280;8926;49.720;6.576;2022-08-16T03:43:31;98965.72;;;19.09;77.96
17615;BME280;8926;49.720;6.576;2022-08-16T03:45:58;98961.72;;;19.05;78.78
17615;BME280;8926;49.720;6.576;2022-08-16T03:48:27;98960.91;;;19.05;78.85
17615;BME280;8926;49.720;6.576;2022-08-16T03:50:53;98955.59;;;19.05;78.97
17615;BME280;8926;49.720;6.576;2022-08-16T03:53:19;98968.16;;;19.03;79.62
17615;BME280;8926;49.720;6.576;2022-08-16T03:55:44;98965.53;;;19.03;78.78
17615;BME280;8926;49.720;6.576;2022-08-16T03:58:10;98963.03;;;19.01;79.14
17615;BME280;8926;49.720;6.576;2022-08-16T04:00:35;98964.84;;;19.01;79.60
17615;BME280;8926;49.720;6.576;2022-08-16T04:03:02;98966.50;;;19.02;79.38
17615;BME280;8926;49.720;6.576;2022-08-16T04:05:32;98961.22;;;19.02;79.04
17615;BME280;8926;49.720;6.576;2022-08-16T04:08:00;98953.59;;;18.98;79.41
17615;BME280;8926;49.720;6.576;2022-08-16T04:10:25;98956.59;;;18.95;79.69
17615;BME280;8926;49.720;6.576;2022-08-16T04:12:50;98962.50;;;18.89;78.75
17615;BME280;8926;49.720;6.576;2022-08-16T04:15:16;98961.16;;;18.85;79.53
17615;BME280;8926;49.720;6.576;2022-08-16T04:17:42;98964.63;;;18.86;79.43
17615;BME280;8926;49.720;6.576;2022-08-16T04:20:09;98967.28;;;18.86;79.44
17615;BME280;8926;49.720;6.576;2022-08-16T04:22:36;98965.78;;;18.83;79.95
17615;BME280;8926;49.720;6.576;2022-08-16T04:25:02;98970.09;;;18.84;79.42
17615;BME280;8926;49.720;6.576;2022-08-16T04:27:28;98970.09;;;18.84;79.86
17615;BME280;8926;49.720;6.576;2022-08-16T04:29:53;98971.75;;;18.85;79.95
17615;BME280;8926;49.720;6.576;2022-08-16T04:32:18;98974.38;;;18.85;79.66
17615;BME280;8926;49.720;6.576;2022-08-16T04:34:44;98984.00;;;18.86;79.56
17615;BME280;8926;49.720;6.576;2022-08-16T04:37:09;98973.41;;;18.86;79.21
17615;BME280;8926;49.720;6.576;2022-08-16T04:39:36;98971.13;;;18.91;79.43
17615;BME280;8926;49.720;6.576;2022-08-16T04:42:02;98969.97;;;18.94;79.15
17615;BME280;8926;49.720;6.576;2022-08-16T04:44:28;98986.47;;;18.88;79.50
17615;BME280;8926;49.720;6.576;2022-08-16T04:46:53;98985.34;;;18.90;79.53
17615;BME280;8926;49.720;6.576;2022-08-16T04:49:20;98988.34;;;18.95;79.36
17615;BME280;8926;49.720;6.576;2022-08-16T04:51:45;98983.22;;;19.02;79.65
17615;BME280;8926;49.720;6.576;2022-08-16T04:54:11;98986.06;;;19.09;79.48
17615;BME280;8926;49.720;6.576;2022-08-16T04:56:37;98998.69;;;19.15;79.98
17615;BME280;8926;49.720;6.576;2022-08-16T04:59:03;98998.34;;;19.18;79.23
17615;BME280;8926;49.720;6.576;2022-08-16T05:01:29;99005.47;;;19.25;79.40
17615;BME280;8926;49.720;6.576;2022-08-16T05:03:55;99002.03;;;19.33;78.53
17615;BME280;8926;49.720;6.576;2022-08-16T05:06:20;99002.22;;;19.40;78.72
17615;BME280;8926;49.720;6.576;2022-08-16T05:08:45;99000.44;;;19.48;78.17
17615;BME280;8926;49.720;6.576;2022-08-16T05:11:12;98996.84;;;19.65;77.28
17615;BME280;8926;49.720;6.576;2022-08-16T05:13:41;99001.84;;;19.69;77.67
17615;BME280;8926;49.720;6.576;2022-08-16T05:16:13;99002.84;;;20.08;76.35
17615;BME280;8926;49.720;6.576;2022-08-16T05:18:39;99003.66;;;20.57;74.48
17615;BME280;8926;49.720;6.576;2022-08-16T05:21:04;98999.94;;;20.91;73.48
17615;BME280;8926;49.720;6.576;2022-08-16T05:23:30;98995.19;;;21.56;72.02
17615;BME280;8926;49.720;6.576;2022-08-16T05:25:55;98991.78;;;22.16;71.20
17615;BME280;8926;49.720;6.576;2022-08-16T05:28:21;98989.03;;;22.77;68.95
17615;BME280;8926;49.720;6.576;2022-08-16T05:30:46;98995.06;;;23.29;67.90
17615;BME280;8926;49.720;6.576;2022-08-16T05:33:11;98987.72;;;23.67;67.47
17615;BME280;8926;49.720;6.576;2022-08-16T05:35:37;98986.09;;;24.09;65.12
17615;BME280;8926;49.720;6.576;2022-08-16T05:38:03;98982.09;;;24.48;62.89
17615;BME280;8926;49.720;6.576;2022-08-16T05:40:28;98983.13;;;24.81;62.07
17615;BME280;8926;49.720;6.576;2022-08-16T05:42:53;98982.56;;;25.20;61.04
17615;BME280;8926;49.720;6.576;2022-08-16T05:45:19;98982.84;;;25.45;59.57
17615;BME280;8926;49.720;6.576;2022-08-16T05:47:44;98988.03;;;25.06;59.37
17615;BME280;8926;49.720;6.576;2022-08-16T05:50:10;98997.22;;;24.62;60.08
17615;BME280;8926;49.720;6.576;2022-08-16T05:52:35;98994.44;;;24.49;61.33
17615;BME280;8926;49.720;6.576;2022-08-16T05:55:01;99003.84;;;24.23;61.64
17615;BME280;8926;49.720;6.576;2022-08-16T05:57:26;99002.34;;;24.14;61.88
17615;BME280;8926;49.720;6.576;2022-08-16T05:59:52;99007.94;;;23.77;63.29
17615;BME280;8926;49.720;6.576;2022-08-16T06:02:18;99000.75;;;23.56;63.80
17615;BME280;8926;49.720;6.576;2022-08-16T06:04:43;99002.06;;;23.66;63.25
17615;BME280;8926;49.720;6.576;2022-08-16T06:07:09;99002.88;;;23.82;62.41
17615;BME280;8926;49.720;6.576;2022-08-16T06:09:35;99005.75;;;23.65;63.77
17615;BME280;8926;49.720;6.576;2022-08-16T06:12:00;99003.34;;;23.71;63.35
17615;BME280;8926;49.720;6.576;2022-08-16T06:14:28;99002.75;;;23.90;62.86
17615;BME280;8926;49.720;6.576;2022-08-16T06:16:53;99002.88;;;23.82;63.19
17615;BME280;8926;49.720;6.576;2022-08-16T06:19:18;98997.91;;;23.79;63.24
17615;BME280;8926;49.720;6.576;2022-08-16T06:21:45;98998.63;;;23.87;63.49
17615;BME280;8926;49.720;6.576;2022-08-16T06:24:11;99000.00;;;24.05;63.40
17615;BME280;8926;49.720;6.576;2022-08-16T06:26:36;98998.91;;;24.20;62.24
17615;BME280;8926;49.720;6.576;2022-08-16T06:29:02;98987.53;;;24.33;62.67
17615;BME280;8926;49.720;6.576;2022-08-16T06:31:28;98989.09;;;24.49;61.22
17615;BME280;8926;49.720;6.576;2022-08-16T06:33:53;98992.94;;;23.97;62.67
17615;BME280;8926;49.720;6.576;2022-08-16T06:36:18;98996.25;;;23.99;63.51
17615;BME280;8926;49.720;6.576;2022-08-16T06:38:43;98991.06;;;24.19;62.71
17615;BME280;8926;49.720;6.576;2022-08-16T06:41:10;98992.88;;;24.33;62.77
17615;BME280;8926;49.720;6.576;2022-08-16T06:43:35;98999.09;;;24.68;61.96
17615;BME280;8926;49.720;6.576;2022-08-16T06:46:03;99002.53;;;24.90;61.30
17615;BME280;8926;49.720;6.576;2022-08-16T06:48:30;99003.16;;;24.92;61.37
17615;BME280;8926;49.720;6.576;2022-08-16T06:50:56;98997.84;;;24.98;60.75
17615;BME280;8926;49.720;6.576;2022-08-16T06:53:22;98993.38;;;25.06;59.93
17615;BME280;8926;49.720;6.576;2022-08-16T06:55:48;98998.38;;;25.22;59.82
17615;BME280;8926;49.720;6.576;2022-08-16T06:58:13;98997.34;;;25.16;60.29
17615;BME280;8926;49.720;6.576;2022-08-16T07:00:39;99005.00;;;25.32;59.86
17615;BME280;8926;49.720;6.576;2022-08-16T07:03:05;98996.09;;;25.66;60.01
17615;BME280;8926;49.720;6.576;2022-08-16T07:05:31;98983.59;;;26.00;58.39
17615;BME280;8926;49.720;6.576;2022-08-16T07:07:57;98983.41;;;26.34;58.18
17615;BME280;8926;49.720;6.576;2022-08-16T07:10:24;98993.31;;;26.41;56.82
17615;BME280;8926;49.720;6.576;2022-08-16T07:12:49;98982.38;;;26.35;56.68
17615;BME280;8926;49.720;6.576;2022-08-16T07:15:19;98981.94;;;26.25;56.65
17615;BME280;8926;49.720;6.576;2022-08-16T07:17:45;98984.22;;;26.09;56.27
17615;BME280;8926;49.720;6.576;2022-08-16T07:20:12;98977.22;;;26.08;57.71
17615;BME280;8926;49.720;6.576;2022-08-16T07:22:38;98973.50;;;26.09;57.28
17615;BME280;8926;49.720;6.576;2022-08-16T07:25:06;98986.69;;;26.10;57.23
17615;BME280;8926;49.720;6.576;2022-08-16T07:27:32;98987.13;;;26.33;56.67
17615;BME280;8926;49.720;6.576;2022-08-16T07:29:57;98989.00;;;26.46;56.65
17615;BME280;8926;49.720;6.576;2022-08-16T07:32:22;98987.31;;;26.65;56.53
17615;BME280;8926;49.720;6.576;2022-08-16T07:34:48;98988.28;;;26.77;55.94
17615;BME280;8926;49.720;6.576;2022-08-16T07:37:13;98992.41;;;26.93;55.91
17615;BME280;8926;49.720;6.576;2022-08-16T07:39:39;98990.91;;;27.17;55.28
17615;BME280;8926;49.720;6.576;2022-08-16T07:42:04;98994.31;;;27.37;54.85
17615;BME280;8926;49.720;6.576;2022-08-16T07:44:30;98992.66;;;27.43;54.13
17615;BME280;8926;49.720;6.576;2022-08-16T07:46:56;98991.28;;;27.72;53.76
17615;BME280;8926;49.720;6.576;2022-08-16T07:49:21;98985.38;;;27.88;52.19
17615;BME280;8926;49.720;6.576;2022-08-16T07:51:48;98998.22;;;27.86;52.72
17615;BME280;8926;49.720;6.576;2022-08-16T07:54:13;98997.44;;;27.79;52.76
17615;BME280;8926;49.720;6.576;2022-08-16T07:56:39;98992.38;;;27.95;53.23
17615;BME280;8926;49.720;6.576;2022-08-16T07:59:05;98990.50;;;28.27;51.82
17615;BME280;8926;49.720;6.576;2022-08-16T08:01:31;98996.38;;;28.61;51.04
17615;BME280;8926;49.720;6.576;2022-08-16T08:03:57;98997.75;;;28.70;51.04
17615;BME280;8926;49.720;6.576;2022-08-16T08:06:24;98998.78;;;28.69;50.24
17615;BME280;8926;49.720;6.576;2022-08-16T08:08:53;99004.50;;;28.79;50.40
17615;BME280;8926;49.720;6.576;2022-08-16T08:11:19;98998.22;;;28.85;50.58
17615;BME280;8926;49.720;6.576;2022-08-16T08:13:45;99000.19;;;28.96;49.77
17615;BME280;8926;49.720;6.576;2022-08-16T08:16:11;99000.75;;;28.80;51.04
17615;BME280;8926;49.720;6.576;2022-08-16T08:18:36;99009.69;;;28.56;50.63
17615;BME280;8926;49.720;6.576;2022-08-16T08:21:01;99004.16;;;28.26;51.96
17615;BME280;8926;49.720;6.576;2022-08-16T08:23:27;99007.72;;;28.13;52.26
17615;BME280;8926;49.720;6.576;2022-08-16T08:25:52;99004.00;;;28.14;52.02
17615;BME280;8926;49.720;6.576;2022-08-16T08:28:18;99004.59;;;28.23;51.60
17615;BME280;8926;49.720;6.576;2022-08-16T08:30:44;99005.78;;;28.52;50.78
17615;BME280;8926;49.720;6.576;2022-08-16T08:33:09;99008.72;;;28.93;50.78
17615;BME280;8926;49.720;6.576;2022-08-16T08:35:36;99013.13;;;29.24;49.62
17615;BME280;8926;49.720;6.576;2022-08-16T08:38:03;99010.81;;;29.10;49.46
17615;BME280;8926;49.720;6.576;2022-08-16T08:40:30;99012.00;;;29.14;50.17
17615;BME280;8926;49.720;6.576;2022-08-16T08:42:58;99005.28;;;29.23;49.76
17615;BME280;8926;49.720;6.576;2022-08-16T08:45:23;98998.09;;;29.53;49.42
17615;BME280;8926;49.720;6.576;2022-08-16T08:47:49;98998.75;;;29.79;48.26
17615;BME280;8926;49.720;6.576;2022-08-16T08:50:15;99001.25;;;29.92;48.34
17615;BME280;8926;49.720;6.576;2022-08-16T08:52:44;99002.13;;;29.74;48.59
17615;BME280;8926;49.720;6.576;2022-08-16T08:55:13;99007.38;;;29.69;48.36
17615;BME280;8926;49.720;6.576;2022-08-16T08:57:40;99003.03;;;29.68;48.85
17615;BME280;8926;49.720;6.576;2022-08-16T09:00:09;98993.16;;;29.92;47.75
17615;BME280;8926;49.720;6.576;2022-08-16T09:02:35;98992.56;;;30.31;47.75
17615;BME280;8926;49.720;6.576;2022-08-16T09:05:01;98996.63;;;30.64;47.39
17615;BME280;8926;49.720;6.576;2022-08-16T09:07:26;98993.78;;;30.82;45.73
17615;BME280;8926;49.720;6.576;2022-08-16T09:09:51;99005.00;;;31.02;46.78
17615;BME280;8926;49.720;6.576;2022-08-16T09:12:17;98997.84;;;31.08;45.52
17615;BME280;8926;49.720;6.576;2022-08-16T09:14:43;98997.50;;;31.04;45.30
17615;BME280;8926;49.720;6.576;2022-08-16T09:17:10;99001.72;;;31.00;45.44
17615;BME280;8926;49.720;6.576;2022-08-16T09:19:36;98999.03;;;31.00;45.52
17615;BME280;8926;49.720;6.576;2022-08-16T09:22:02;99013.22;;;30.37;45.52
17615;BME280;8926;49.720;6.576;2022-08-16T09:24:29;98999.13;;;30.12;46.12
17615;BME280;8926;49.720;6.576;2022-08-16T09:26:54;99000.06;;;30.29;45.62
17615;BME280;8926;49.720;6.576;2022-08-16T09:29:19;98987.47;;;30.65;45.99
17615;BME280;8926;49.720;6.576;2022-08-16T09:31:45;98989.56;;;30.63;44.76
17615;BME280;8926;49.720;6.576;2022-08-16T09:34:11;98997.75;;;30.68;44.85
17615;BME280;8926;49.720;6.576;2022-08-16T09:36:37;98987.91;;;30.85;42.44
17615;BME280;8926;49.720;6.576;2022-08-16T09:39:03;98988.34;;;31.05;41.88
17615;BME280;8926;49.720;6.576;2022-08-16T09:41:28;98984.09;;;31.10;41.87
17615;BME280;8926;49.720;6.576;2022-08-16T09:43:55;98988.81;;;31.02;41.62
17615;BME280;8926;49.720;6.576;2022-08-16T09:46:20;98986.00;;;30.97;41.56
17615;BME280;8926;49.720;6.576;2022-08-16T09:48:47;98986.63;;;30.88;41.39
17615;BME280;8926;49.720;6.576;2022-08-16T09:51:13;98990.94;;;31.00;41.61
17615;BME280;8926;49.720;6.576;2022-08-16T09:53:39;98985.50;;;31.24;40.80
17615;BME280;8926;49.720;6.576;2022-08-16T09:56:17;98996.03;;;31.37;40.29
17615;BME280;8926;49.720;6.576;2022-08-16T09:58:44;98995.59;;;31.28;40.48
17615;BME280;8926;49.720;6.576;2022-08-16T10:01:09;98993.44;;;31.42;41.11
17615;BME280;8926;49.720;6.576;2022-08-16T10:03:35;98992.66;;;31.30;40.14
17615;BME280;8926;49.720;6.576;2022-08-16T10:06:00;98992.41;;;31.31;39.83
17615;BME280;8926;49.720;6.576;2022-08-16T10:08:25;98988.25;;;31.12;39.74
17615;BME280;8926;49.720;6.576;2022-08-16T10:10:51;98990.31;;;31.10;39.22
17615;BME280;8926;49.720;6.576;2022-08-16T10:13:34;98995.50;;;31.00;40.27
17615;BME280;8926;49.720;6.576;2022-08-16T10:16:00;98991.16;;;31.11;39.34
17615;BME280;8926;49.720;6.576;2022-08-16T10:18:27;98993.47;;;31.19;39.16
17615;BME280;8926;49.720;6.576;2022-08-16T10:20:54;98991.41;;;31.49;37.69
17615;BME280;8926;49.720;6.576;2022-08-16T10:23:21;98989.00;;;31.64;36.39
17615;BME280;8926;49.720;6.576;2022-08-16T10:25:47;98988.31;;;31.86;38.59
17615;BME280;8926;49.720;6.576;2022-08-16T10:28:13;98985.88;;;32.01;37.06
17615;BME280;8926;49.720;6.576;2022-08-16T10:30:40;98987.69;;;32.12;36.98
17615;BME280;8926;49.720;6.576;2022-08-16T10:33:10;98984.38;;;32.38;37.65
17615;BME280;8926;49.720;6.576;2022-08-16T10:35:36;98986.41;;;32.15;36.91
17615;BME280;8926;49.720;6.576;2022-08-16T10:38:02;98987.13;;;31.93;37.57
17615;BME280;8926;49.720;6.576;2022-08-16T10:40:27;98985.88;;;32.01;37.92
17615;BME280;8926;49.720;6.576;2022-08-16T10:42:53;98980.88;;;32.21;38.16
17615;BME280;8926;49.720;6.576;2022-08-16T10:45:19;98972.97;;;32.36;37.33
17615;BME280;8926;49.720;6.576;2022-08-16T10:47:44;98982.31;;;32.46;36.89
17615;BME280;8926;49.720;6.576;2022-08-16T10:50:10;98984.25;;;32.50;37.16
17615;BME280;8926;49.720;6.576;2022-08-16T10:52:36;98983.44;;;32.50;37.26
17615;BME280;8926;49.720;6.576;2022-08-16T10:55:03;98987.03;;;32.55;36.30
17615;BME280;8926;49.720;6.576;2022-08-16T10:57:29;98991.81;;;32.48;35.57
17615;BME280;8926;49.720;6.576;2022-08-16T10:59:57;98996.75;;;32.34;35.60
17615;BME280;8926;49.720;6.576;2022-08-16T11:02:22;98999.03;;;32.26;36.61
17615;BME280;8926;49.720;6.576;2022-08-16T11:04:49;99000.63;;;32.10;36.07
17615;BME280;8926;49.720;6.576;2022-08-16T11:07:14;98991.78;;;31.98;36.58
17615;BME280;8926;49.720;6.576;2022-08-16T11:09:39;98989.09;;;32.15;36.63
17615;BME280;8926;49.720;6.576;2022-08-16T11:12:05;98993.31;;;32.39;36.56
17615;BME280;8926;49.720;6.576;2022-08-16T11:14:32;98983.53;;;32.55;36.16
17615;BME280;8926;49.720;6.576;2022-08-16T11:16:59;98979.75;;;32.72;35.68
17615;BME280;8926;49.720;6.576;2022-08-16T11:19:26;98985.69;;;32.91;35.36
17615;BME280;8926;49.720;6.576;2022-08-16T11:21:52;98985.69;;;32.91;34.41
17615;BME280;8926;49.720;6.576;2022-08-16T11:24:17;98989.28;;;32.97;34.80
17615;BME280;8926;49.720;6.576;2022-08-16T11:26:43;98992.75;;;32.92;34.13
17615;BME280;8926;49.720;6.576;2022-08-16T11:29:08;98992.75;;;32.92;34.73
17615;BME280;8926;49.720;6.576;2022-08-16T11:31:34;98986.53;;;33.14;34.55
17615;BME280;8926;49.720;6.576;2022-08-16T11:33:59;98992.63;;;33.26;34.17
17615;BME280;8926;49.720;6.576;2022-08-16T11:36:25;98997.91;;;33.16;33.47
17615;BME280;8926;49.720;6.576;2022-08-16T11:38:50;98995.97;;;33.11;34.34
17615;BME280;8926;49.720;6.576;2022-08-16T11:41:16;98991.94;;;33.14;34.49
17615;BME280;8926;49.720;6.576;2022-08-16T11:43:41;98983.94;;;33.24;34.80
17615;BME280;8926;49.720;6.576;2022-08-16T11:46:12;98983.56;;;33.37;34.01
17615;BME280;8926;49.720;6.576;2022-08-16T11:48:38;98979.66;;;33.28;34.92
17615;BME280;8926;49.720;6.576;2022-08-16T11:51:04;98977.91;;;33.17;34.08
17615;BME280;8926;49.720;6.576;2022-08-16T11:53:31;98977.31;;;33.15;33.95
17615;BME280;8926;49.720;6.576;2022-08-16T11:55:58;98975.69;;;33.14;33.15
17615;BME280;8926;49.720;6.576;2022-08-16T11:58:25;98972.22;;;33.18;33.52
17615;BME280;8926;49.720;6.576;2022-08-16T12:00:52;98977.06;;;33.16;32.76
17615;BME280;8926;49.720;6.576;2022-08-16T12:03:20;98974.63;;;33.15;33.08
17615;BME280;8926;49.720;6.576;2022-08-16T12:05:46;98973.97;;;33.08;34.22
17615;BME280;8926;49.720;6.576;2022-08-16T12:08:12;98979.91;;;33.04;33.79
17615;BME280;8926;49.720;6.576;2022-08-16T12:10:39;98967.69;;;32.80;33.63
17615;BME280;8926;49.720;6.576;2022-08-16T12:13:06;98969.34;;;32.64;33.74
17615;BME280;8926;49.720;6.576;2022-08-16T12:15:32;98964.41;;;32.78;33.33
17615;BME280;8926;49.720;6.576;2022-08-16T12:17:57;98965.88;;;32.69;33.75
17615;BME280;8926;49.720;6.576;2022-08-16T12:20:30;98959.16;;;32.71;33.60
17615;BME280;8926;49.720;6.576;2022-08-16T12:22:57;98962.59;;;32.67;34.13
17615;BME280;8926;49.720;6.576;2022-08-16T12:25:25;98960.06;;;32.77;34.01
17615;BME280;8926;49.720;6.576;2022-08-16T12:27:51;98957.56;;;32.92;33.45
17615;BME280;8926;49.720;6.576;2022-08-16T12:30:27;98956.00;;;32.96;34.08
17615;BME280;8926;49.720;6.576;2022-08-16T12:32:56;98950.50;;;32.91;33.00
17615;BME280;8926;49.720;6.576;2022-08-16T12:35:21;98947.38;;;32.61;32.85
17615;BME280;8926;49.720;6.576;2022-08-16T12:37:48;98949.88;;;32.46;33.42
17615;BME280;8926;49.720;6.576;2022-08-16T12:40:17;98950.94;;;32.28;33.56
17615;BME280;8926;49.720;6.576;2022-08-16T12:42:44;98942.50;;;32.24;33.53
17615;BME280;8926;49.720;6.576;2022-08-16T12:45:12;98950.53;;;32.19;33.15
17615;BME280;8926;49.720;6.576;2022-08-16T12:47:37;98949.03;;;31.95;32.79
17615;BME280;8926;49.720;6.576;2022-08-16T12:50:22;98952.13;;;31.87;32.53
17615;BME280;8926;49.720;6.576;2022-08-16T12:52:47;98951.31;;;32.03;33.57
17615;BME280;8926;49.720;6.576;2022-08-16T12:55:14;98952.88;;;31.99;33.83
17615;BME280;8926;49.720;6.576;2022-08-16T12:57:40;98954.69;;;31.93;34.46
17615;BME280;8926;49.720;6.576;2022-08-16T13:00:09;98951.97;;;31.77;34.48
17615;BME280;8926;49.720;6.576;2022-08-16T13:02:38;98946.88;;;31.80;34.57
17615;BME280;8926;49.720;6.576;2022-08-16T13:05:04;98952.72;;;31.89;34.63
17615;BME280;8926;49.720;6.576;2022-08-16T13:07:30;98942.56;;;31.96;34.56